createdAt,value
2019-01-20T12:48:19.444Z,10.03
2019-01-20T12:50:49.765Z,11.80
2019-01-20T12:53:20.005Z,10.65
2019-01-20T12:55:50.556Z,11.90
2019-01-20T12:58:20.968Z,8.98
2019-01-20T13:00:51.207Z,9.53
2019-01-20T13:03:21.440Z,11.38
2019-01-20T13:05:51.691Z,12.30
2019-01-20T13:08:21.932Z,10.98
2019-01-20T13:10:52.263Z,8.80
2019-01-20T13:13:22.490Z,9.73
2019-01-20T13:15:52.776Z,8.55
2019-01-20T13:18:23.132Z,8.23
2019-01-20T13:20:53.599Z,10.03
2019-01-20T13:23:23.820Z,9.70
2019-01-20T13:25:54.124Z,10.28
2019-01-20T13:28:24.364Z,9.43
2019-01-20T13:30:54.571Z,8.43
2019-01-20T13:33:24.867Z,9.55
2019-01-20T13:35:55.100Z,8.58
2019-01-20T13:38:25.320Z,7.87
2019-01-20T13:40:57.675Z,8.53
2019-01-20T13:43:27.896Z,9.73
2019-01-20T13:45:58.132Z,10.13
2019-01-20T13:48:28.420Z,10.55
2019-01-20T13:50:58.716Z,10.75
2019-01-20T13:53:30.111Z,9.80
2019-01-20T13:56:01.334Z,8.25
2019-01-20T16:39:25.755Z,11.80
2019-01-20T16:41:56.308Z,9.05
2019-01-20T16:44:26.624Z,9.65
2019-01-20T16:46:56.839Z,8.00
2019-01-20T16:49:27.127Z,8.48
2019-01-20T16:51:57.416Z,7.40
2019-01-20T16:54:27.631Z,9.25
2019-01-20T16:56:57.859Z,12.40
2019-01-20T16:59:28.115Z,9.05
2019-01-20T17:01:58.343Z,11.85
2019-01-20T17:04:29.237Z,8.18
2019-01-20T17:06:59.676Z,8.60
2019-01-20T17:09:29.904Z,9.55
2019-01-20T17:12:00.587Z,9.13
2019-01-20T17:14:30.799Z,7.83
2019-01-20T17:17:01.079Z,7.37
2019-01-20T17:19:31.308Z,6.15
2019-01-20T17:22:01.520Z,8.78
2019-01-20T17:24:31.731Z,6.30
2019-01-20T17:27:01.944Z,7.40
2019-01-20T17:29:32.151Z,7.22
2019-01-20T17:32:03.586Z,7.12
2019-01-20T17:34:34.153Z,5.97
2019-01-20T17:37:04.373Z,8.60
2019-01-20T17:39:34.609Z,12.03
2019-01-20T17:42:04.833Z,7.62
2019-01-20T17:44:35.282Z,6.55
2019-01-20T17:47:05.496Z,9.28
2019-01-20T17:49:35.711Z,7.08
2019-01-20T17:52:05.943Z,11.05
2019-01-20T17:54:36.167Z,9.13
2019-01-20T17:57:06.397Z,11.20
2019-01-20T17:59:36.643Z,10.13
2019-01-20T18:02:07.051Z,10.85
2019-01-20T18:04:37.280Z,6.83
2019-01-20T18:07:07.493Z,7.47
2019-01-20T18:09:37.719Z,5.92
2019-01-20T18:12:08.180Z,5.80
2019-01-20T18:14:39.357Z,7.22
2019-01-20T18:17:09.564Z,7.67
2019-01-20T18:19:39.775Z,7.95
2019-01-20T18:22:10.012Z,10.32
2019-01-20T18:24:40.234Z,8.85
2019-01-20T18:27:10.519Z,6.92
2019-01-20T18:29:40.749Z,6.60
2019-01-20T18:32:10.959Z,8.28
2019-01-20T18:34:41.176Z,7.20
2019-01-20T18:37:11.408Z,6.75
2019-01-20T18:39:41.627Z,7.22
2019-01-20T18:42:11.856Z,7.42
2019-01-20T18:44:42.099Z,10.28
2019-01-20T18:47:12.323Z,9.43
2019-01-20T18:49:42.605Z,9.80
2019-01-20T18:52:12.876Z,10.25
2019-01-20T18:54:43.184Z,10.18
2019-01-20T18:57:13.423Z,10.82
2019-01-20T18:59:43.809Z,10.45
2019-01-20T19:02:14.043Z,10.80
2019-01-20T19:04:44.279Z,13.78
2019-01-20T19:07:14.664Z,13.08
2019-01-20T19:09:44.905Z,14.53
2019-01-20T19:12:15.384Z,18.57
2019-01-20T19:14:45.615Z,17.37
2019-01-20T19:17:15.852Z,15.58
2019-01-20T19:19:46.163Z,15.15
2019-01-20T19:22:16.507Z,16.75
2019-01-20T19:24:46.747Z,18.48
2019-01-20T19:27:17.063Z,18.60
2019-01-20T19:29:47.311Z,16.93
2019-01-20T19:32:17.554Z,14.45
2019-01-20T19:34:47.788Z,13.22
2019-01-20T19:37:18.026Z,14.98
2019-01-20T19:39:50.637Z,15.00
2019-01-20T19:42:20.207Z,12.93
2019-01-20T19:44:50.556Z,15.32
2019-01-20T19:47:20.792Z,12.28
2019-01-20T19:49:51.067Z,12.50
2019-01-20T19:52:21.295Z,11.57
2019-01-20T19:54:51.536Z,11.83
2019-01-20T19:57:21.772Z,10.08
2019-01-20T19:59:52.016Z,9.95
2019-01-20T20:02:22.243Z,11.00
2019-01-20T20:04:52.480Z,10.15
2019-01-20T20:07:22.716Z,10.10
2019-01-20T20:09:52.963Z,9.73
2019-01-20T20:12:23.330Z,9.83
2019-01-20T20:14:53.565Z,11.25
2019-01-20T20:17:23.803Z,13.30
2019-01-20T20:19:54.040Z,12.03
2019-01-20T20:22:24.284Z,12.98
2019-01-20T20:24:54.515Z,11.00
2019-01-20T20:27:24.775Z,10.55
2019-01-20T20:29:54.985Z,9.95
2019-01-20T20:32:25.211Z,10.23
